Time;durP1;ratioP1;P1;durP2;ratioP2;P2;SDS_P1;SDS_P2;PMS_P1;PMS_P2;Temp;Humidity;BMP_temperature;BMP_pressure;BME280_temperature;BME280_humidity;BME280_pressure;Samples;Min_cycle;Max_cycle;Signal;HPM_P1;HPM_P2
2022/04/02 00:00:56;;;;;;;4.10;3.67;;;;;;;2.78;98.65;94842.63;5097808;28;20591;-67
2022/04/02 00:03:22;;;;;;;8.40;3.50;;;;;;;2.76;99.05;94834.16;5097217;28;20214;-67
2022/04/02 00:05:49;;;;;;;9.37;4.37;;;;;;;2.96;98.01;94832.84;5097145;28;20222;-67
2022/04/02 00:08:16;;;;;;;4.83;3.77;;;;;;;2.73;98.75;94834.47;5097096;28;20195;-67
2022/04/02 00:10:43;;;;;;;3.50;2.80;;;;;;;2.63;100.00;94836.44;5097352;28;20958;-66
2022/04/02 00:13:10;;;;;;;5.60;3.60;;;;;;;2.68;99.85;94828.97;5097524;28;20203;-67
2022/04/02 00:15:36;;;;;;;8.40;3.67;;;;;;;2.76;99.69;94827.19;5097532;28;20224;-67
2022/04/02 00:18:03;;;;;;;5.17;3.80;;;;;;;2.63;99.76;94826.84;5097385;28;20216;-65
2022/04/02 00:20:29;;;;;;;8.33;4.33;;;;;;;2.74;99.24;94825.72;5097162;28;20229;-67
2022/04/02 00:25:40;;;;;;;9.33;3.50;;;;;;;2.33;100.00;94823.25;5098217;28;20301;-67
2022/04/02 00:28:08;;;;;;;14.47;5.30;;;;;;;2.52;100.00;94827.19;5096736;28;20271;-67
2022/04/02 00:30:34;;;;;;;3.23;2.40;;;;;;;2.21;100.00;94829.75;5096911;28;20201;-67
2022/04/02 00:33:01;;;;;;;2.93;2.20;;;;;;;2.20;100.00;94825.53;5096639;28;20213;-67
2022/04/02 00:35:27;;;;;;;3.97;3.60;;;;;;;2.56;99.97;94819.88;5096990;28;20621;-68
2022/04/02 00:37:54;;;;;;;6.63;3.97;;;;;;;2.40;100.00;94819.06;5096688;28;20622;-68
2022/04/02 00:40:20;;;;;;;9.53;4.73;;;;;;;2.47;100.00;94833.84;5097156;28;20205;-67
2022/04/02 00:42:47;;;;;;;6.93;3.30;;;;;;;2.39;100.00;94827.81;5093093;28;20687;-67
2022/04/02 00:45:15;;;;;;;5.00;3.47;;;;;;;2.32;100.00;94821.63;5096525;28;20511;-67
2022/04/02 00:47:41;;;;;;;6.67;3.93;;;;;;;2.25;100.00;94825.88;5096436;28;20433;-67
2022/04/02 00:50:09;;;;;;;4.57;2.20;;;;;;;2.14;100.00;94820.97;5096374;28;20199;-67
2022/04/02 00:52:35;;;;;;;8.27;2.57;;;;;;;1.98;100.00;94823.56;5095750;28;20734;-67
2022/04/02 00:55:02;;;;;;;5.57;3.83;;;;;;;1.98;100.00;94829.56;5096342;28;20195;-68
2022/04/02 00:57:29;;;;;;;3.83;3.37;;;;;;;2.20;100.00;94821.16;5096365;28;20205;-67
2022/04/02 00:59:56;;;;;;;3.43;2.60;;;;;;;2.28;100.00;94823.75;5096143;28;20971;-67
2022/04/02 01:02:24;;;;;;;3.67;2.57;;;;;;;2.29;100.00;94824.56;5095997;28;20207;-67
2022/04/02 01:04:51;;;;;;;4.40;2.60;;;;;;;2.16;100.00;94827.63;5096676;28;20223;-68
2022/04/02 01:07:18;;;;;;;5.37;3.13;;;;;;;2.44;100.00;94834.16;5096764;28;20671;-67
2022/04/02 01:09:44;;;;;;;3.90;2.20;;;;;;;2.16;100.00;94832.03;5096589;28;20380;-69
2022/04/02 01:12:11;;;;;;;4.33;3.13;;;;;;;2.06;100.00;94831.34;5096160;28;20589;-67
2022/04/02 01:14:38;;;;;;;3.07;2.50;;;;;;;2.12;100.00;94835.91;5096051;28;20359;-68
2022/04/02 01:17:05;;;;;;;6.47;2.63;;;;;;;2.27;100.00;94837.72;5095756;28;20221;-67
2022/04/02 01:19:33;;;;;;;2.60;1.97;;;;;;;2.32;100.00;94838.06;5096618;28;20199;-67
2022/04/02 01:22:01;;;;;;;6.87;4.50;;;;;;;2.38;100.00;94842.63;5096027;28;20227;-68
2022/04/02 01:24:27;;;;;;;8.37;3.87;;;;;;;2.09;100.00;94839.66;5095457;28;20593;-68
2022/04/02 01:26:54;;;;;;;5.97;3.77;;;;;;;2.03;100.00;94842.06;5096184;28;20223;-69
2022/04/02 01:29:20;;;;;;;6.50;4.30;;;;;;;2.05;100.00;94853.09;5096882;28;20199;-67
2022/04/02 01:31:47;;;;;;;4.00;3.17;;;;;;;2.54;100.00;94846.00;5096064;28;20359;-68
2022/04/02 01:34:13;;;;;;;5.07;4.00;;;;;;;1.88;100.00;94854.03;5096263;28;20229;-67
2022/04/02 01:36:40;;;;;;;6.23;4.37;;;;;;;2.12;100.00;94851.50;5095850;28;20223;-68
2022/04/02 01:39:08;;;;;;;3.63;3.30;;;;;;;2.07;100.00;94853.78;5095881;28;20447;-68
2022/04/02 01:41:34;;;;;;;3.13;2.50;;;;;;;2.14;100.00;94862.53;5093967;28;20202;-67
2022/04/02 01:44:01;;;;;;;4.63;4.03;;;;;;;2.11;100.00;94857.66;5095678;28;20203;-67
2022/04/02 01:46:27;;;;;;;29.77;1.97;;;;;;;2.29;99.78;94851.38;5095269;28;20842;-68
2022/04/02 01:48:53;;;;;;;20.20;4.33;;;;;;;2.27;100.00;94849.91;5096178;28;20211;-68
2022/04/02 01:51:20;;;;;;;4.27;3.53;;;;;;;2.14;100.00;94859.94;5096582;28;20203;-68
2022/04/02 01:53:46;;;;;;;3.00;1.83;;;;;;;1.94;100.00;94849.03;5095164;28;20450;-67
2022/04/02 01:56:14;;;;;;;3.57;2.77;;;;;;;2.29;100.00;94848.78;5096266;28;20211;-67
2022/04/02 01:58:42;;;;;;;7.57;5.00;;;;;;;2.21;100.00;94847.94;5095496;28;20206;-69
2022/04/02 02:01:08;;;;;;;5.70;3.33;;;;;;;2.06;100.00;94852.13;5094335;28;20203;-68
2022/04/02 02:03:35;;;;;;;7.63;3.17;;;;;;;2.15;100.00;94852.00;5095360;28;20199;-68
2022/04/02 02:06:01;;;;;;;5.77;3.00;;;;;;;2.28;100.00;94854.13;5095691;28;20226;-67
2022/04/02 02:08:29;;;;;;;3.30;3.00;;;;;;;1.65;100.00;94857.38;5099516;28;20203;-68
2022/04/02 02:10:56;;;;;;;3.60;2.23;;;;;;;1.71;100.00;94857.56;5099781;28;20203;-67
2022/04/02 02:13:24;;;;;;;4.30;3.10;;;;;;;2.18;100.00;94862.06;5099435;28;20215;-67
2022/04/02 02:15:50;;;;;;;5.07;3.17;;;;;;;2.24;99.64;94858.00;5099836;28;20321;-68
2022/04/02 02:18:17;;;;;;;6.10;3.27;;;;;;;2.13;99.62;94858.34;5099779;28;20201;-69
2022/04/02 02:20:43;;;;;;;6.00;3.47;;;;;;;2.37;98.60;94856.59;5099410;28;20204;-68
2022/04/02 02:23:10;;;;;;;4.73;3.17;;;;;;;2.33;97.75;94863.06;5099529;28;20239;-67
2022/04/02 02:25:37;;;;;;;7.73;3.17;;;;;;;1.92;99.86;94871.75;5099697;28;20249;-67
2022/04/02 02:28:04;;;;;;;3.40;1.50;;;;;;;1.84;100.00;94868.31;5099328;28;20206;-68
2022/04/02 02:30:32;;;;;;;4.60;2.07;;;;;;;2.22;99.57;94878.16;5099963;28;20202;-67
2022/04/02 02:35:51;;;;;;;6.13;3.70;;;;;;;2.36;98.75;94869.75;5098719;28;20569;-68
2022/04/02 02:38:20;;;;;;;6.73;3.80;;;;;;;2.22;99.32;94870.38;5099360;28;20206;-67
2022/04/02 02:40:48;;;;;;;4.47;2.80;;;;;;;2.12;99.33;94869.69;5099439;28;20237;-67
2022/04/02 02:43:15;;;;;;;5.23;2.83;;;;;;;1.89;99.38;94882.44;5096757;28;20195;-67
2022/04/02 02:45:43;;;;;;;6.93;3.63;;;;;;;2.10;99.99;94876.81;5098940;28;20276;-69
2022/04/02 02:48:10;;;;;;;6.70;2.93;;;;;;;1.97;100.00;94882.50;5096148;28;20206;-68
2022/04/02 02:50:37;;;;;;;6.57;4.07;;;;;;;2.26;97.85;94882.06;5098930;28;20759;-68
2022/04/02 02:53:04;;;;;;;8.10;4.20;;;;;;;2.40;97.17;94874.44;5098969;28;20203;-68
2022/04/02 02:55:31;;;;;;;5.93;1.73;;;;;;;2.42;97.51;94875.91;5099518;28;20222;-68
2022/04/02 02:57:57;;;;;;;4.17;3.37;;;;;;;2.50;97.28;94875.91;5098667;28;20214;-68
2022/04/02 03:00:24;;;;;;;8.70;4.03;;;;;;;1.91;98.89;94880.53;5098739;28;20211;-68
2022/04/02 03:02:52;;;;;;;6.20;3.50;;;;;;;2.45;98.84;94874.78;5098147;28;20575;-67
2022/04/02 03:05:18;;;;;;;9.70;3.00;;;;;;;2.40;98.41;94882.25;5098547;28;20226;-69
2022/04/02 03:07:49;;;;;;;4.23;3.37;;;;;;;2.39;98.99;94880.59;5099094;28;20201;-68
2022/04/02 03:10:16;;;;;;;2.93;2.53;;;;;;;2.16;98.15;94892.59;5099143;28;20490;-70
2022/04/02 03:12:43;;;;;;;4.30;2.93;;;;;;;1.95;99.29;94891.41;5098124;28;20197;-68
2022/04/02 03:15:11;;;;;;;3.33;2.37;;;;;;;2.15;99.49;94884.97;5098363;28;20655;-69
2022/04/02 03:17:37;;;;;;;5.27;2.77;;;;;;;2.14;98.40;94886.75;5098735;28;20670;-68
2022/04/02 03:20:07;;;;;;;2.30;2.03;;;;;;;2.41;98.53;94886.47;5097520;28;20748;-68
2022/04/02 03:22:35;;;;;;;2.47;2.27;;;;;;;1.91;99.59;94884.91;5098291;28;20270;-67
2022/04/02 03:25:01;;;;;;;5.47;2.70;;;;;;;2.13;100.00;94889.50;5098384;28;20221;-68
2022/04/02 03:27:28;;;;;;;5.47;3.57;;;;;;;2.50;98.48;94885.50;5098476;28;20203;-67
2022/04/02 03:29:55;;;;;;;7.63;4.20;;;;;;;1.88;99.45;94890.41;5097901;28;20298;-68
2022/04/02 03:32:21;;;;;;;11.13;4.80;;;;;;;2.17;99.15;94886.41;5097624;28;20195;-68
2022/04/02 03:34:48;;;;;;;4.67;2.67;;;;;;;2.10;100.00;94890.66;5098390;28;20199;-68
2022/04/02 03:37:16;;;;;;;4.37;3.73;;;;;;;2.27;99.36;94884.50;5097982;28;20202;-69
2022/04/02 03:39:42;;;;;;;3.70;2.97;;;;;;;1.70;100.00;94887.09;5098151;28;20211;-68
2022/04/02 03:42:09;;;;;;;9.90;3.27;;;;;;;1.54;100.00;94894.81;5095277;28;20206;-68
2022/04/02 03:44:36;;;;;;;2.97;2.53;;;;;;;1.63;100.00;94886.09;5098161;28;20246;-67
2022/04/02 03:47:09;;;;;;;2.83;2.03;;;;;;;1.58;100.00;94893.53;5097727;28;20222;-68
2022/04/02 03:49:35;;;;;;;2.13;1.47;;;;;;;1.80;100.00;94886.97;5098058;28;20570;-67
2022/04/02 03:52:02;;;;;;;3.17;2.33;;;;;;;1.90;99.62;94897.06;5097749;28;20497;-69
2022/04/02 03:54:30;;;;;;;3.10;1.90;;;;;;;1.82;100.00;94891.06;5097242;28;20203;-68
2022/04/02 03:56:56;;;;;;;5.53;3.00;;;;;;;1.50;100.00;94888.31;5097821;28;20230;-68
2022/04/02 03:59:23;;;;;;;4.67;2.87;;;;;;;1.84;99.99;94897.69;5097502;28;20208;-68
2022/04/02 04:01:50;;;;;;;4.80;3.20;;;;;;;1.88;99.78;94905.97;5097872;28;20209;-68
2022/04/02 04:04:16;;;;;;;6.73;3.70;;;;;;;1.76;98.79;94907.25;5096812;28;20202;-68
2022/04/02 04:06:43;;;;;;;2.47;2.27;;;;;;;1.75;98.88;94905.63;5097653;28;20511;-68
2022/04/02 04:09:10;;;;;;;6.57;3.70;;;;;;;1.70;98.83;94907.06;5097897;28;20195;-68
2022/04/02 04:11:38;;;;;;;5.13;2.00;;;;;;;1.52;99.65;94909.72;5097174;28;20207;-67
2022/04/02 04:14:04;;;;;;;3.23;2.50;;;;;;;1.43;98.90;94913.25;5096551;28;20206;-68
2022/04/02 04:16:31;;;;;;;2.00;1.87;;;;;;;1.25;99.93;94917.69;5097376;28;20629;-70
2022/04/02 04:18:57;;;;;;;5.70;3.20;;;;;;;1.57;98.68;94910.09;5098010;28;20211;-68
2022/04/02 04:21:24;;;;;;;5.07;2.87;;;;;;;1.86;97.79;94908.75;5097262;28;20195;-68
2022/04/02 04:23:51;;;;;;;3.67;2.97;;;;;;;1.49;98.93;94925.63;5095886;28;20344;-69
2022/04/02 04:26:18;;;;;;;3.90;3.50;;;;;;;1.82;98.55;94922.22;5097427;28;20719;-68
2022/04/02 04:28:46;;;;;;;2.00;1.53;;;;;;;1.86;99.22;94926.91;5097314;28;20199;-67
2022/04/02 04:31:17;;;;;;;3.67;2.37;;;;;;;1.60;98.72;94922.72;5096618;28;20207;-68
2022/04/02 04:33:44;;;;;;;2.67;1.93;;;;;;;1.55;99.65;94924.97;5096519;28;20291;-68
2022/04/02 04:36:11;;;;;;;3.93;2.77;;;;;;;1.80;99.41;94924.94;5097019;28;20612;-68
2022/04/02 04:38:38;;;;;;;2.87;2.30;;;;;;;1.58;99.12;94932.47;5097045;28;20206;-68
2022/04/02 04:41:05;;;;;;;5.53;2.87;;;;;;;1.74;98.39;94936.94;5097579;28;20195;-68
2022/04/02 04:43:31;;;;;;;6.87;3.20;;;;;;;1.69;98.78;94937.38;5093660;28;20195;-68
2022/04/02 04:45:59;;;;;;;4.77;2.63;;;;;;;1.72;99.57;94938.84;5097338;28;20231;-68
2022/04/02 04:48:25;;;;;;;5.83;3.27;;;;;;;1.72;98.25;94938.84;5097463;28;20229;-68
2022/04/02 04:50:52;;;;;;;3.70;3.37;;;;;;;1.33;99.89;94950.66;5097452;28;20213;-69
2022/04/02 04:53:18;;;;;;;5.45;3.03;;;;;;;1.80;98.64;94952.69;5096913;28;20442;-68
2022/04/02 04:55:45;;;;;;;5.30;3.03;;;;;;;1.78;98.73;94953.81;5097681;28;20211;-69
2022/04/02 04:58:11;;;;;;;7.53;3.43;;;;;;;1.94;97.63;94947.72;5097940;28;20578;-68
2022/04/02 05:00:38;;;;;;;1.93;1.83;;;;;;;1.77;97.90;94959.97;5096864;28;20211;-67
2022/04/02 05:03:08;;;;;;;1.97;1.77;;;;;;;2.02;97.68;94955.53;5096497;28;20206;-68
2022/04/02 05:05:35;;;;;;;6.10;3.40;;;;;;;1.70;96.88;94972.75;5097003;28;20230;-68
2022/04/02 05:08:02;;;;;;;2.23;2.00;;;;;;;1.97;96.75;94962.19;5097426;28;20207;-69
2022/04/02 05:10:29;;;;;;;12.40;3.53;;;;;;;1.62;97.98;94975.31;5096706;28;20212;-68
2022/04/02 05:12:56;;;;;;;5.33;2.77;;;;;;;1.78;97.49;94978.00;5096595;28;20203;-68
2022/04/02 05:15:22;;;;;;;2.43;2.23;;;;;;;1.73;96.19;94982.84;5096909;28;20222;-68
2022/04/02 05:17:49;;;;;;;4.67;3.13;;;;;;;1.57;97.45;94995.72;5096999;28;20203;-68
2022/04/02 05:20:17;;;;;;;25.63;3.07;;;;;;;1.76;96.98;94984.31;5096875;28;20195;-68
2022/04/02 05:22:44;;;;;;;4.30;3.40;;;;;;;1.61;97.34;94994.47;5096140;28;20732;-68
2022/04/02 05:25:12;;;;;;;7.53;3.17;;;;;;;1.71;96.30;94992.56;5096999;28;20226;-68
2022/04/02 05:27:38;;;;;;;4.10;2.30;;;;;;;1.67;96.75;94999.03;5096662;28;20221;-69
2022/04/02 05:30:06;;;;;;;4.70;2.87;;;;;;;1.83;96.39;94992.16;5096761;28;20199;-69
2022/04/02 05:32:33;;;;;;;7.30;4.80;;;;;;;1.92;96.15;94990.41;5095950;28;20254;-69
2022/04/02 05:34:59;;;;;;;4.87;2.80;;;;;;;1.92;96.02;94995.59;5096964;28;20237;-68
2022/04/02 05:37:27;;;;;;;2.67;2.33;;;;;;;1.92;96.39;94995.59;5097121;28;20198;-68
2022/04/02 05:39:53;;;;;;;3.80;2.23;;;;;;;1.82;95.53;95005.31;5096491;28;20209;-68
2022/04/02 05:42:21;;;;;;;5.77;2.97;;;;;;;2.10;95.52;95009.31;5093992;28;20659;-68
2022/04/02 05:44:48;;;;;;;4.27;2.47;;;;;;;2.13;95.73;95016.81;5101113;28;20957;-68
2022/04/02 05:47:14;;;;;;;2.40;1.63;;;;;;;2.30;94.56;95021.09;5100555;28;20224;-68
2022/04/02 05:49:40;;;;;;;5.57;2.70;;;;;;;2.33;94.62;95020.78;5101083;28;20386;-68
2022/04/02 05:52:07;;;;;;;7.13;4.03;;;;;;;2.41;94.80;95025.03;5100908;28;20203;-68
2022/04/02 05:54:35;;;;;;;6.63;4.10;;;;;;;2.38;94.78;95018.53;5100508;28;20237;-68
2022/04/02 05:57:02;;;;;;;10.87;4.23;;;;;;;1.99;94.76;95031.19;5100768;28;20225;-68
2022/04/02 05:59:28;;;;;;;6.60;3.47;;;;;;;2.42;93.44;95026.66;5100681;28;20221;-69
2022/04/02 06:01:55;;;;;;;5.10;3.10;;;;;;;2.05;94.05;95034.94;5100435;28;20727;-69
2022/04/02 06:04:23;;;;;;;2.83;2.17;;;;;;;1.83;95.70;95028.53;5100249;28;20216;-70
2022/04/02 06:06:49;;;;;;;5.33;2.70;;;;;;;2.11;95.45;95029.94;5099857;28;20316;-69
2022/04/02 06:09:16;;;;;;;6.20;2.63;;;;;;;2.26;94.13;95036.19;5099780;28;20608;-68
2022/04/02 06:11:45;;;;;;;7.60;3.87;;;;;;;2.42;94.39;95031.88;5100252;28;20604;-68
2022/04/02 06:14:13;;;;;;;2.87;1.73;;;;;;;1.90;93.54;95045.09;5099371;28;20204;-68
2022/04/02 06:16:39;;;;;;;4.20;2.13;;;;;;;2.23;94.30;95040.88;5100825;28;20268;-68
2022/04/02 06:19:06;;;;;;;3.30;2.23;;;;;;;2.16;94.07;95045.06;5100507;28;20207;-68
2022/04/02 06:21:33;;;;;;;5.73;3.43;;;;;;;2.12;94.40;95052.34;5100171;28;20201;-70
2022/04/02 06:24:04;;;;;;;2.90;2.30;;;;;;;2.46;93.61;95055.75;5099497;28;20696;-70
2022/04/02 06:26:30;;;;;;;3.03;2.17;;;;;;;2.43;92.04;95054.28;5100369;28;20319;-68
2022/04/02 06:28:59;;;;;;;16.17;3.10;;;;;;;2.92;91.78;95048.25;5099964;28;20196;-69
2022/04/02 06:31:25;;;;;;;5.50;3.33;;;;;;;2.14;94.13;95060.81;5100400;28;20201;-68
2022/04/02 06:33:52;;;;;;;2.33;2.10;;;;;;;2.33;93.61;95058.00;5099691;28;20207;-70
2022/04/02 06:36:19;;;;;;;3.00;2.13;;;;;;;2.31;94.09;95054.72;5100043;28;20222;-69
2022/04/02 06:38:46;;;;;;;6.40;2.80;;;;;;;2.38;94.35;95057.50;5099596;28;20253;-68
2022/04/02 06:41:12;;;;;;;4.77;2.70;;;;;;;1.87;95.71;95062.75;5098247;28;20200;-69
2022/04/02 06:43:39;;;;;;;1.80;1.53;;;;;;;1.85;94.82;95068.13;5097031;28;20219;-69
2022/04/02 06:46:07;;;;;;;2.77;2.23;;;;;;;1.77;95.47;95069.88;5098560;28;20231;-69
2022/04/02 06:48:34;;;;;;;5.57;3.13;;;;;;;2.23;95.34;95066.84;5098611;28;20207;-68
2022/04/02 06:51:01;;;;;;;2.70;2.37;;;;;;;2.38;94.59;95070.50;5099146;28;20208;-68
2022/04/02 06:53:28;;;;;;;3.27;2.97;;;;;;;2.60;93.33;95068.16;5097120;28;20288;-69
2022/04/02 06:55:54;;;;;;;7.57;3.73;;;;;;;2.73;91.92;95079.72;5098488;28;20605;-68
2022/04/02 06:58:26;;;;;;;2.67;2.23;;;;;;;2.40;93.48;95079.78;5099138;28;20206;-68
2022/04/02 07:00:53;;;;;;;6.78;2.90;;;;;;;2.44;94.00;95084.53;5098487;28;20534;-69
2022/04/02 07:03:22;;;;;;;2.67;2.10;;;;;;;2.82;92.01;95081.38;5097654;28;20201;-69
2022/04/02 07:05:49;;;;;;;3.40;2.17;;;;;;;2.23;93.14;95095.44;5098314;28;20228;-69
2022/04/02 07:08:15;;;;;;;13.63;3.77;;;;;;;2.62;92.45;95089.59;5097885;28;20219;-69
2022/04/02 07:10:42;;;;;;;2.30;2.00;;;;;;;2.10;92.95;95100.25;5098452;28;20209;-68
2022/04/02 07:13:08;;;;;;;1.63;1.53;;;;;;;2.40;92.91;95100.56;5098398;28;20203;-69
2022/04/02 07:15:35;;;;;;;4.00;2.60;;;;;;;2.44;92.83;95107.91;5098367;28;20226;-70
2022/04/02 07:18:06;;;;;;;1.50;1.40;;;;;;;3.00;91.35;95102.09;5098194;28;20204;-68
2022/04/02 07:20:35;;;;;;;3.03;2.30;;;;;;;3.03;90.76;95108.59;5098929;28;20233;-68
2022/04/02 07:23:02;;;;;;;8.73;2.20;;;;;;;2.86;90.97;95105.31;5097344;28;20199;-68
2022/04/02 07:25:30;;;;;;;2.93;2.07;;;;;;;2.64;90.50;95119.69;5098353;28;20216;-69
2022/04/02 07:27:57;;;;;;;2.03;1.83;;;;;;;2.90;90.06;95115.22;5097785;28;20695;-69
2022/04/02 07:30:24;;;;;;;2.60;1.47;;;;;;;2.81;90.44;95126.56;5098500;28;20226;-68
2022/04/02 07:32:51;;;;;;;2.63;2.43;;;;;;;2.99;88.73;95127.28;5096246;28;20200;-70
2022/04/02 07:35:18;;;;;;;5.33;3.07;;;;;;;3.01;88.57;95133.16;5098211;28;20729;-69
2022/04/02 07:37:59;;;;;;;1.53;1.23;;;;;;;2.94;89.50;95141.75;5097754;28;20202;-69
2022/04/02 07:40:29;;;;;;;3.60;2.37;;;;;;;3.02;89.87;95140.00;5097574;28;20659;-69
2022/04/02 07:43:04;;;;;;;1.90;1.80;;;;;;;3.21;89.44;95142.31;5093572;28;20872;-69
2022/04/02 07:45:36;;;;;;;2.73;2.53;;;;;;;3.09;89.48;95146.19;5098166;28;20225;-69
2022/04/02 07:48:07;;;;;;;4.40;2.23;;;;;;;3.26;88.35;95145.25;5097461;28;20205;-69
2022/04/02 07:50:35;;;;;;;1.67;1.33;;;;;;;2.69;89.53;95155.63;5097690;28;20291;-70
2022/04/02 07:53:07;;;;;;;6.00;1.43;;;;;;;2.84;90.11;95157.50;5097626;28;20209;-69
2022/04/02 07:55:36;;;;;;;2.30;1.93;;;;;;;3.34;89.04;95164.31;5097845;28;20225;-70
2022/04/02 07:58:04;;;;;;;5.57;2.93;;;;;;;3.48;87.73;95163.69;5098029;28;20207;-68
2022/04/02 08:00:32;;;;;;;1.77;1.67;;;;;;;2.75;90.16;95173.19;5097675;28;20686;-68
2022/04/02 08:03:01;;;;;;;2.90;1.80;;;;;;;2.82;89.45;95175.03;5096768;28;20214;-70
2022/04/02 08:05:27;;;;;;;2.20;1.77;;;;;;;2.56;90.43;95173.47;5096620;28;20223;-70
2022/04/02 08:07:55;;;;;;;2.13;1.80;;;;;;;3.03;88.21;95180.66;5097824;28;20223;-69
2022/04/02 08:10:25;;;;;;;1.23;1.13;;;;;;;2.80;89.84;95186.56;5097205;28;20202;-68
2022/04/02 08:12:54;;;;;;;3.70;2.00;;;;;;;2.98;90.08;95188.13;5096790;28;20199;-70
2022/04/02 08:15:22;;;;;;;3.03;1.73;;;;;;;2.94;89.42;95189.41;5098175;28;20219;-69
2022/04/02 08:17:52;;;;;;;3.67;1.50;;;;;;;3.22;88.91;95188.19;5097124;28;20201;-70
2022/04/02 08:20:18;;;;;;;3.10;1.83;;;;;;;2.90;89.45;95200.25;5097139;28;20195;-68
2022/04/02 08:22:45;;;;;;;4.33;2.67;;;;;;;2.54;89.61;95201.38;5096789;28;20208;-68
2022/04/02 08:25:12;;;;;;;1.67;1.57;;;;;;;2.92;88.94;95200.94;5097022;28;20677;-69
2022/04/02 08:27:59;;;;;;;1.83;1.57;;;;;;;3.02;88.16;95198.03;5096491;28;20222;-70
2022/04/02 08:30:31;;;;;;;2.03;1.73;;;;;;;2.95;89.46;95206.63;5096689;28;20199;-69
2022/04/02 08:33:20;;;;;;;3.43;2.13;;;;;;;3.40;87.20;95207.09;5095546;28;20611;-69
2022/04/02 08:35:53;;;;;;;2.23;1.77;;;;;;;3.19;88.48;95214.53;5096676;28;20225;-69
2022/04/02 08:38:32;;;;;;;2.37;1.70;;;;;;;3.53;86.99;95212.69;5097169;28;20697;-69
2022/04/02 08:41:38;;;;;;;3.50;2.43;;;;;;;4.00;85.53;95217.97;5097088;28;20206;-69
2022/04/02 08:44:31;;;;;;;5.60;2.00;;;;;;;3.75;85.03;95224.09;5096437;28;20198;-68
2022/04/02 08:47:11;;;;;;;3.83;1.77;;;;;;;4.35;84.36;95225.44;5097331;28;20229;-69
2022/04/02 08:49:41;;;;;;;2.40;2.20;;;;;;;4.43;82.74;95230.66;5096759;28;20717;-68
2022/04/02 08:52:23;;;;;;;5.73;2.27;;;;;;;3.60;84.73;95240.53;5096425;28;20630;-69
2022/04/02 08:55:11;;;;;;;3.73;2.00;;;;;;;3.50;85.42;95244.25;5097021;28;20208;-69
2022/04/02 08:58:08;;;;;;;4.23;2.93;;;;;;;3.63;85.99;95248.84;5096470;28;20199;-68
2022/04/02 09:00:41;;;;;;;1.87;1.23;;;;;;;2.95;87.31;95258.66;5089254;28;20207;-69
2022/04/02 09:03:44;;;;;;;3.63;2.57;;;;;;;3.78;85.37;95257.66;5096219;28;20241;-69
2022/04/02 09:06:43;;;;;;;1.93;1.60;;;;;;;3.94;84.97;95257.69;5095624;28;20218;-69
2022/04/02 09:09:23;;;;;;;6.60;2.03;;;;;;;4.24;83.71;95254.47;5096344;28;20206;-69
2022/04/02 09:12:10;;;;;;;3.50;2.57;;;;;;;3.57;86.20;95264.28;5096264;28;20216;-69
2022/04/02 09:15:01;;;;;;;1.27;1.17;;;;;;;4.04;84.30;95262.78;5096035;28;20206;-69
2022/04/02 09:17:36;;;;;;;2.97;1.70;;;;;;;3.19;86.73;95274.38;5094952;28;20194;-68
2022/04/02 09:20:41;;;;;;;2.00;1.20;;;;;;;3.51;85.52;95272.72;5096297;28;20212;-69
2022/04/02 09:23:11;;;;;;;2.20;1.47;;;;;;;3.21;88.43;95280.28;4993399;28;20971;-68
2022/04/02 09:26:15;;;;;;;1.97;1.77;;;;;;;3.43;86.40;95277.09;5080768;28;20215;-69
2022/04/02 09:28:46;;;;;;;1.80;1.63;;;;;;;2.66;89.60;95278.97;5095663;28;20220;-68
2022/04/02 09:31:41;;;;;;;1.83;1.50;;;;;;;2.64;89.73;95290.50;5095417;28;20743;-68
2022/04/02 09:34:56;;;;;;;2.03;1.63;;;;;;;3.01;88.64;95291.88;5096079;28;20209;-69
2022/04/02 09:37:37;;;;;;;1.53;1.00;;;;;;;2.45;90.34;95291.50;5096469;28;20288;-69
2022/04/02 09:40:05;;;;;;;15.53;2.43;;;;;;;2.45;90.84;95296.69;5095595;28;20211;-70
2022/04/02 09:42:37;;;;;;;3.77;2.40;;;;;;;2.78;90.52;95298.56;5092910;28;21178;-70
2022/04/02 09:45:08;;;;;;;1.33;1.23;;;;;;;2.84;89.87;95303.16;5095983;28;20720;-68
2022/04/02 09:48:00;;;;;;;1.53;1.43;;;;;;;3.06;86.96;95307.84;5095657;28;20225;-70
2022/04/02 09:50:30;;;;;;;1.30;1.20;;;;;;;3.03;87.26;95308.16;5096213;28;20203;-68
2022/04/02 09:52:58;;;;;;;4.80;2.13;;;;;;;2.75;88.54;95314.47;5095122;28;20203;-68
2022/04/02 09:55:29;;;;;;;3.40;2.30;;;;;;;3.15;89.16;95312.13;5096137;28;20250;-69
2022/04/02 09:58:27;;;;;;;1.70;1.47;;;;;;;2.78;87.72;95318.56;5095467;28;20240;-69
2022/04/02 10:01:05;;;;;;;2.40;1.13;;;;;;;3.00;87.61;95312.84;5094809;28;20208;-68
2022/04/02 10:03:34;;;;;;;4.67;1.63;;;;;;;2.44;88.67;95323.69;5094805;28;20672;-69
2022/04/02 10:06:24;;;;;;;1.53;1.43;;;;;;;3.13;88.09;95329.66;5095847;28;20215;-69
2022/04/02 10:09:04;;;;;;;2.47;1.83;;;;;;;3.31;88.19;95325.19;5096012;28;20303;-69
2022/04/02 10:11:33;;;;;;;3.10;2.17;;;;;;;3.22;87.35;95328.72;5094814;28;20207;-70
2022/04/02 10:14:01;;;;;;;2.03;1.87;;;;;;;3.28;86.57;95334.13;5095073;28;20211;-68
2022/04/02 10:16:29;;;;;;;2.63;2.37;;;;;;;3.12;85.27;95328.03;5095712;28;20217;-69
2022/04/02 10:18:58;;;;;;;3.10;2.30;;;;;;;3.16;85.08;95329.38;5095712;28;20574;-69
2022/04/02 10:21:28;;;;;;;2.20;1.63;;;;;;;3.37;86.25;95332.41;5095989;28;20206;-70
2022/04/02 10:24:05;;;;;;;3.10;1.97;;;;;;;2.67;86.99;95337.00;5095324;28;20207;-69
2022/04/02 10:26:38;;;;;;;2.90;1.93;;;;;;;2.69;86.95;95341.09;5095086;28;20380;-69
2022/04/02 10:29:11;;;;;;;2.73;2.33;;;;;;;3.54;83.31;95341.91;5098750;28;20214;-68
2022/04/02 10:31:41;;;;;;;5.67;2.33;;;;;;;3.44;84.44;95344.63;5100094;28;20204;-69
2022/04/02 10:34:10;;;;;;;2.40;1.10;;;;;;;3.30;82.78;95342.63;5099234;28;20230;-70
2022/04/02 10:36:44;;;;;;;1.53;1.43;;;;;;;2.95;84.21;95341.91;5100265;28;20219;-69
2022/04/02 10:39:16;;;;;;;2.57;1.50;;;;;;;3.38;83.95;95344.44;5099545;28;20198;-68
2022/04/02 10:41:45;;;;;;;3.03;1.83;;;;;;;3.45;83.06;95342.84;5097001;28;20208;-69
2022/04/02 10:44:20;;;;;;;1.67;1.57;;;;;;;3.44;84.32;95349.84;5099759;28;20218;-69
2022/04/02 10:46:53;;;;;;;2.27;1.23;;;;;;;3.04;84.26;95354.00;5100281;28;21035;-69
2022/04/02 10:49:27;;;;;;;1.57;1.10;;;;;;;3.38;83.06;95365.28;5099533;28;20229;-69
2022/04/02 10:51:56;;;;;;;1.40;1.30;;;;;;;3.36;83.34;95362.00;5099893;28;21264;-70
2022/04/02 10:54:28;;;;;;;2.77;2.37;;;;;;;3.26;81.75;95356.91;5099452;28;20206;-70
2022/04/02 10:56:55;;;;;;;1.53;1.23;;;;;;;3.39;81.19;95361.72;5099547;28;20229;-69
2022/04/02 10:59:21;;;;;;;1.43;1.13;;;;;;;3.34;81.42;95371.75;5099654;28;20293;-70
2022/04/02 11:01:52;;;;;;;3.07;2.00;;;;;;;3.79;81.33;95354.88;5099620;28;20669;-69
2022/04/02 11:04:28;;;;;;;1.67;1.53;;;;;;;3.65;81.62;95364.13;5099130;28;20299;-69
2022/04/02 11:06:57;;;;;;;2.97;1.47;;;;;;;3.54;81.80;95375.75;5099414;28;20246;-69
2022/04/02 11:09:39;;;;;;;5.03;2.07;;;;;;;4.30;80.19;95360.72;5098919;28;20230;-69
2022/04/02 11:12:07;;;;;;;3.57;2.23;;;;;;;4.51;78.84;95374.13;5098827;28;20209;-69
2022/04/02 11:14:38;;;;;;;1.17;1.07;;;;;;;4.07;78.38;95372.72;5098623;28;20199;-69
2022/04/02 11:17:05;;;;;;;3.87;2.33;;;;;;;3.45;79.42;95377.53;5099197;28;20218;-69
2022/04/02 11:22:26;;;;;;;0.90;0.67;;;;;;;3.49;80.88;95394.47;5098468;28;20206;-71
2022/04/02 11:25:01;;;;;;;1.20;1.20;;;;;;;3.36;82.14;95394.06;5099096;28;20212;-69
2022/04/02 11:27:29;;;;;;;1.80;1.70;;;;;;;4.27;79.59;95392.31;5098975;28;20206;-69
2022/04/02 11:30:05;;;;;;;1.40;1.30;;;;;;;3.72;80.25;95398.16;5098808;28;20217;-69
2022/04/02 11:32:38;;;;;;;0.70;0.70;;;;;;;3.49;81.73;95406.66;5097707;28;20213;-69
2022/04/02 11:35:08;;;;;;;5.80;2.33;;;;;;;3.83;80.29;95411.75;5098726;28;20213;-69
2022/04/02 11:37:46;;;;;;;8.60;2.50;;;;;;;3.57;81.52;95406.72;5098999;28;20209;-70
2022/04/02 11:40:15;;;;;;;3.00;1.87;;;;;;;3.98;81.35;95402.31;5098044;28;20215;-69
2022/04/02 11:42:47;;;;;;;4.20;1.73;;;;;;;3.72;81.69;95417.22;5095803;28;20199;-68
2022/04/02 11:45:18;;;;;;;2.17;1.40;;;;;;;4.45;80.65;95401.63;5098551;28;20227;-68
2022/04/02 11:47:48;;;;;;;4.83;2.20;;;;;;;4.49;79.91;95408.19;5097990;28;20821;-70
2022/04/02 11:50:24;;;;;;;4.07;2.03;;;;;;;3.98;80.22;95414.56;5098808;28;20272;-69
2022/04/02 11:52:54;;;;;;;3.30;2.73;;;;;;;3.84;81.18;95415.16;5097905;28;20201;-69
2022/04/02 11:55:21;;;;;;;1.40;1.17;;;;;;;3.34;82.48;95421.22;5098941;28;20245;-68
2022/04/02 11:58:07;;;;;;;5.73;2.87;;;;;;;3.67;81.51;95419.47;5097376;28;20285;-69
2022/04/02 12:00:35;;;;;;;2.90;1.90;;;;;;;4.09;82.46;95420.31;5098243;28;20214;-70